METAR AND TAF INFORMATION
METAR FOR SKSP
ADDS - METARS form results

(1256 UTC 13 April 2021)
Data provider http://aviationweather.gov/metar/data/
 
Forecast for: SKSP (SAN ANDRES ISLAN, CO)
Text: TAF SKSP 131030Z 1312/1412 08010KT 9999 FEW018 TX31/1319Z TN26/1410Z
Forecast period: 1200 UTC 13 April 2021 to 1200 UTC 14 April 2021
Forecast type: FROM: standard forecast or significant change
Winds: from the E (80 degrees) at 12 MPH (10 knots; 5.1 m/s)
Visibility: 6 or more miles (10+ km)
Ceiling: at least 12,000 feet AGL
Clouds: few clouds at 1800 feet AGL
Weather: no significant weather forecast for this period

 AIRPORT MAP

 RUNWAY INFORMATION
Runway 06 Runway length 7808 ft Runway width 148 ft
Runway elevation 8 ft Runway displaced threshold 0 ft Runway heading 59
Runway 24 Runway length 7808 ft Runway width 148 ft
Runway elevation 8 ft Runway displaced threshold 0 ft Runway heading 239

 AIRPORT FREQUENCIES
Type APP Name SAN ANDRES Frequency 119.3 MHZ
Type ATIS Name ATIS Frequency 113.3 MHZ
Type CNTR Name PANAMA CNT Frequency 120.3 MHZ
Type RDO Name SAN ANDRES Frequency 653.2 MHZ
Type TWR Name TWR Frequency 118.1 MHZ

 AIRPORT NEAR NAVIGATION AIDS
Type VOR-DME Name San Andres Frequency 113300 KHZ
Type NDB Name San Andres Frequency 387 KHZ